sensor_id;sensor_type;location;lat;lon;timestamp;pressure;altitude;pressure_sealevel;temperature;humidity
16580;BME280;8402;51.466;6.806;2023-03-26T00:00:37;100471.31;;;10.21;97.03
16580;BME280;8402;51.466;6.806;2023-03-26T00:03:10;100466.72;;;10.22;97.14
16580;BME280;8402;51.466;6.806;2023-03-26T00:05:41;100472.16;;;10.22;97.12
16580;BME280;8402;51.466;6.806;2023-03-26T00:08:13;100462.09;;;10.22;97.40
16580;BME280;8402;51.466;6.806;2023-03-26T00:10:46;100464.50;;;10.24;97.63
16580;BME280;8402;51.466;6.806;2023-03-26T00:13:16;100459.09;;;10.24;97.67
16580;BME280;8402;51.466;6.806;2023-03-26T00:15:46;100461.16;;;10.27;97.34
16580;BME280;8402;51.466;6.806;2023-03-26T00:18:19;100469.28;;;10.27;97.25
16580;BME280;8402;51.466;6.806;2023-03-26T00:20:51;100460.69;;;10.25;97.54
16580;BME280;8402;51.466;6.806;2023-03-26T00:23:21;100463.38;;;10.25;97.59
16580;BME280;8402;51.466;6.806;2023-03-26T00:25:55;100457.50;;;10.23;97.66
16580;BME280;8402;51.466;6.806;2023-03-26T00:28:26;100461.28;;;10.22;97.95
16580;BME280;8402;51.466;6.806;2023-03-26T00:30:58;100456.66;;;10.22;97.69
16580;BME280;8402;51.466;6.806;2023-03-26T00:33:29;100453.97;;;10.22;97.53
16580;BME280;8402;51.466;6.806;2023-03-26T00:36:06;100449.94;;;10.19;97.93
16580;BME280;8402;51.466;6.806;2023-03-26T00:38:38;100451.53;;;10.20;97.92
16580;BME280;8402;51.466;6.806;2023-03-26T00:41:12;100454.91;;;10.17;98.39
16580;BME280;8402;51.466;6.806;2023-03-26T00:43:52;100445.66;;;10.18;97.82
16580;BME280;8402;51.466;6.806;2023-03-26T00:46:25;100451.06;;;10.18;98.05
16580;BME280;8402;51.466;6.806;2023-03-26T00:48:56;100448.69;;;10.17;98.13
16580;BME280;8402;51.466;6.806;2023-03-26T00:51:28;100440.06;;;10.15;98.13
16580;BME280;8402;51.466;6.806;2023-03-26T00:53:59;100446.91;;;10.12;98.27
16580;BME280;8402;51.466;6.806;2023-03-26T00:56:31;100442.59;;;10.11;98.45
16580;BME280;8402;51.466;6.806;2023-03-26T00:59:02;100445.31;;;10.11;98.27
16580;BME280;8402;51.466;6.806;2023-03-26T01:01:32;100445.19;;;10.08;98.11
16580;BME280;8402;51.466;6.806;2023-03-26T01:04:27;100434.63;;;10.06;98.12
16580;BME280;8402;51.466;6.806;2023-03-26T01:07:00;100438.31;;;10.10;98.01
16580;BME280;8402;51.466;6.806;2023-03-26T01:09:34;100442.59;;;10.11;97.63
16580;BME280;8402;51.466;6.806;2023-03-26T01:12:13;100433.69;;;10.11;97.71
16580;BME280;8402;51.466;6.806;2023-03-26T01:14:45;100426.81;;;10.13;97.90
16580;BME280;8402;51.466;6.806;2023-03-26T01:17:17;100426.81;;;10.13;97.75
16580;BME280;8402;51.466;6.806;2023-03-26T01:19:51;100425.22;;;10.12;97.77
16580;BME280;8402;51.466;6.806;2023-03-26T01:22:25;100413.25;;;10.13;97.70
16580;BME280;8402;51.466;6.806;2023-03-26T01:24:57;100411.19;;;10.10;97.60
16580;BME280;8402;51.466;6.806;2023-03-26T01:27:31;100419.34;;;10.10;98.00
16580;BME280;8402;51.466;6.806;2023-03-26T01:30:10;100411.66;;;10.12;98.04
16580;BME280;8402;51.466;6.806;2023-03-26T01:32:53;100404.34;;;10.13;97.96
16580;BME280;8402;51.466;6.806;2023-03-26T01:35:33;100404.34;;;10.13;97.27
16580;BME280;8402;51.466;6.806;2023-03-26T01:38:20;100405.91;;;10.14;97.63
16580;BME280;8402;51.466;6.806;2023-03-26T01:40:58;100405.63;;;10.15;97.16
16580;BME280;8402;51.466;6.806;2023-03-26T01:43:31;100401.66;;;10.22;97.12
16580;BME280;8402;51.466;6.806;2023-03-26T01:46:06;100397.84;;;10.23;97.13
16580;BME280;8402;51.466;6.806;2023-03-26T01:48:39;100395.94;;;10.23;96.80
16580;BME280;8402;51.466;6.806;2023-03-26T01:51:12;100390.50;;;10.23;96.29
16580;BME280;8402;51.466;6.806;2023-03-26T01:53:44;100381.56;;;10.23;96.47
16580;BME280;8402;51.466;6.806;2023-03-26T01:56:25;100376.28;;;10.17;95.74
16580;BME280;8402;51.466;6.806;2023-03-26T01:59:10;100372.78;;;10.17;96.08
16580;BME280;8402;51.466;6.806;2023-03-26T02:01:46;100370.53;;;10.19;95.95
16580;BME280;8402;51.466;6.806;2023-03-26T02:04:24;100364.31;;;10.18;95.71
16580;BME280;8402;51.466;6.806;2023-03-26T02:06:59;100364.16;;;10.15;95.21
16580;BME280;8402;51.466;6.806;2023-03-26T02:09:36;100356.31;;;10.13;95.82
16580;BME280;8402;51.466;6.806;2023-03-26T02:12:15;100357.13;;;10.14;95.21
16580;BME280;8402;51.466;6.806;2023-03-26T02:14:46;100354.13;;;10.15;95.26
16580;BME280;8402;51.466;6.806;2023-03-26T02:17:16;100353.31;;;10.15;95.47
16580;BME280;8402;51.466;6.806;2023-03-26T02:19:50;100349.50;;;10.16;94.80
16580;BME280;8402;51.466;6.806;2023-03-26T02:22:20;100350.59;;;10.15;94.82
16580;BME280;8402;51.466;6.806;2023-03-26T02:24:56;100345.47;;;10.13;95.33
16580;BME280;8402;51.466;6.806;2023-03-26T02:27:28;100347.41;;;10.13;94.88
16580;BME280;8402;51.466;6.806;2023-03-26T02:29:59;100337.34;;;10.13;95.43
16580;BME280;8402;51.466;6.806;2023-03-26T02:32:29;100329.88;;;10.10;95.23
16580;BME280;8402;51.466;6.806;2023-03-26T02:35:01;100336.09;;;10.11;95.29
16580;BME280;8402;51.466;6.806;2023-03-26T02:37:31;100334.81;;;10.08;95.17
16580;BME280;8402;51.466;6.806;2023-03-26T02:40:03;100326.69;;;10.08;95.28
16580;BME280;8402;51.466;6.806;2023-03-26T02:42:39;100318.56;;;10.08;95.44
16580;BME280;8402;51.466;6.806;2023-03-26T02:45:09;100315.84;;;10.08;95.38
16580;BME280;8402;51.466;6.806;2023-03-26T02:47:39;100323.47;;;10.06;95.09
16580;BME280;8402;51.466;6.806;2023-03-26T02:50:11;100313.44;;;10.07;95.42
16580;BME280;8402;51.466;6.806;2023-03-26T02:52:42;100315.06;;;10.08;95.53
16580;BME280;8402;51.466;6.806;2023-03-26T02:55:15;100299.59;;;10.08;95.30
16580;BME280;8402;51.466;6.806;2023-03-26T02:57:48;100303.41;;;10.07;95.37
16580;BME280;8402;51.466;6.806;2023-03-26T03:00:18;100298.00;;;10.07;95.57
16580;BME280;8402;51.466;6.806;2023-03-26T03:02:49;100292.06;;;10.05;95.50
16580;BME280;8402;51.466;6.806;2023-03-26T03:05:20;100287.78;;;10.04;95.60
16580;BME280;8402;51.466;6.806;2023-03-26T03:07:52;100278.38;;;10.02;95.80
16580;BME280;8402;51.466;6.806;2023-03-26T03:10:24;100270.59;;;10.00;95.95
16580;BME280;8402;51.466;6.806;2023-03-26T03:13:01;100268.03;;;9.95;95.99
16580;BME280;8402;51.466;6.806;2023-03-26T03:15:34;100263.06;;;9.97;96.08
16580;BME280;8402;51.466;6.806;2023-03-26T03:18:04;100260.38;;;9.97;95.63
16580;BME280;8402;51.466;6.806;2023-03-26T03:20:34;100261.94;;;9.98;95.79
16580;BME280;8402;51.466;6.806;2023-03-26T03:23:04;100254.00;;;9.93;95.96
16580;BME280;8402;51.466;6.806;2023-03-26T03:25:34;100256.22;;;9.91;95.77
16580;BME280;8402;51.466;6.806;2023-03-26T03:28:07;100250.34;;;9.89;95.91
16580;BME280;8402;51.466;6.806;2023-03-26T03:30:37;100253.03;;;9.89;96.15
16580;BME280;8402;51.466;6.806;2023-03-26T03:33:07;100245.72;;;9.81;96.37
16580;BME280;8402;51.466;6.806;2023-03-26T03:35:38;100247.31;;;9.82;95.98
16580;BME280;8402;51.466;6.806;2023-03-26T03:38:09;100247.31;;;9.82;96.27
16580;BME280;8402;51.466;6.806;2023-03-26T03:40:39;100244.13;;;9.80;96.24
16580;BME280;8402;51.466;6.806;2023-03-26T03:43:12;100241.59;;;9.75;96.47
16580;BME280;8402;51.466;6.806;2023-03-26T03:45:42;100233.94;;;9.77;95.99
16580;BME280;8402;51.466;6.806;2023-03-26T03:48:13;100239.53;;;9.80;95.88
16580;BME280;8402;51.466;6.806;2023-03-26T03:50:44;100234.09;;;9.80;96.08
16580;BME280;8402;51.466;6.806;2023-03-26T03:53:14;100228.34;;;9.82;95.85
16580;BME280;8402;51.466;6.806;2023-03-26T03:55:44;100223.09;;;9.77;95.64
16580;BME280;8402;51.466;6.806;2023-03-26T03:58:23;100224.38;;;9.71;96.01
16580;BME280;8402;51.466;6.806;2023-03-26T04:00:54;100222.31;;;9.68;95.83
16580;BME280;8402;51.466;6.806;2023-03-26T04:03:30;100218.63;;;9.63;95.84
16580;BME280;8402;51.466;6.806;2023-03-26T04:06:05;100222.66;;;9.57;95.99
16580;BME280;8402;51.466;6.806;2023-03-26T04:08:37;100217.22;;;9.57;96.13
16580;BME280;8402;51.466;6.806;2023-03-26T04:11:07;100216.09;;;9.58;96.33
16580;BME280;8402;51.466;6.806;2023-03-26T04:13:39;100208.44;;;9.60;96.41
16580;BME280;8402;51.466;6.806;2023-03-26T04:16:10;100211.16;;;9.60;96.05
16580;BME280;8402;51.466;6.806;2023-03-26T04:18:40;100204.78;;;9.56;95.72
16580;BME280;8402;51.466;6.806;2023-03-26T04:21:11;100197.78;;;9.55;95.78
16580;BME280;8402;51.466;6.806;2023-03-26T04:23:41;100198.09;;;9.54;96.02
16580;BME280;8402;51.466;6.806;2023-03-26T04:26:14;100191.56;;;9.55;96.01
16580;BME280;8402;51.466;6.806;2023-03-26T04:28:50;100189.19;;;9.53;95.70
16580;BME280;8402;51.466;6.806;2023-03-26T04:31:23;100186.16;;;9.55;95.96
16580;BME280;8402;51.466;6.806;2023-03-26T04:34:04;100184.22;;;9.55;95.91
16580;BME280;8402;51.466;6.806;2023-03-26T04:36:39;100174.97;;;9.56;95.75
16580;BME280;8402;51.466;6.806;2023-03-26T04:39:12;100175.63;;;9.53;95.71
16580;BME280;8402;51.466;6.806;2023-03-26T04:41:42;100174.06;;;9.52;95.59
16580;BME280;8402;51.466;6.806;2023-03-26T04:44:15;100177.56;;;9.53;95.74
16580;BME280;8402;51.466;6.806;2023-03-26T04:46:48;100168.31;;;9.54;95.81
16580;BME280;8402;51.466;6.806;2023-03-26T04:49:18;100174.19;;;9.56;95.95
16580;BME280;8402;51.466;6.806;2023-03-26T04:51:48;100162.56;;;9.55;96.05
16580;BME280;8402;51.466;6.806;2023-03-26T04:54:21;100159.38;;;9.53;95.97
16580;BME280;8402;51.466;6.806;2023-03-26T04:56:56;100161.78;;;9.55;96.03
16580;BME280;8402;51.466;6.806;2023-03-26T04:59:32;100152.53;;;9.56;95.82
16580;BME280;8402;51.466;6.806;2023-03-26T05:02:04;100154.44;;;9.55;96.16
16580;BME280;8402;51.466;6.806;2023-03-26T05:04:35;100147.91;;;9.56;96.00
16580;BME280;8402;51.466;6.806;2023-03-26T05:07:10;100139.47;;;9.58;96.25
16580;BME280;8402;51.466;6.806;2023-03-26T05:09:40;100142.03;;;9.54;96.13
16580;BME280;8402;51.466;6.806;2023-03-26T05:12:10;100137.06;;;9.56;96.29
16580;BME280;8402;51.466;6.806;2023-03-26T05:14:43;100134.69;;;9.55;96.35
16580;BME280;8402;51.466;6.806;2023-03-26T05:17:14;100125.44;;;9.56;96.35
16580;BME280;8402;51.466;6.806;2023-03-26T05:19:47;100120.03;;;9.56;96.46
16580;BME280;8402;51.466;6.806;2023-03-26T05:22:18;100111.59;;;9.57;96.41
16580;BME280;8402;51.466;6.806;2023-03-26T05:24:48;100109.97;;;9.56;96.56
16580;BME280;8402;51.466;6.806;2023-03-26T05:27:18;100103.78;;;9.56;96.93
16580;BME280;8402;51.466;6.806;2023-03-26T05:29:51;100098.22;;;9.52;96.56
16580;BME280;8402;51.466;6.806;2023-03-26T05:32:21;100102.50;;;9.53;97.08
16580;BME280;8402;51.466;6.806;2023-03-26T05:34:51;100100.28;;;9.55;96.88
16580;BME280;8402;51.466;6.806;2023-03-26T05:37:21;100096.94;;;9.58;96.82
16580;BME280;8402;51.466;6.806;2023-03-26T05:39:52;100090.72;;;9.58;97.18
16580;BME280;8402;51.466;6.806;2023-03-26T05:42:22;100089.59;;;9.59;97.14
16580;BME280;8402;51.466;6.806;2023-03-26T05:44:55;100084.19;;;9.59;96.98
16580;BME280;8402;51.466;6.806;2023-03-26T05:47:25;100085.44;;;9.61;97.04
16580;BME280;8402;51.466;6.806;2023-03-26T05:49:56;100078.91;;;9.62;97.14
16580;BME280;8402;51.466;6.806;2023-03-26T05:52:26;100070.78;;;9.62;96.99
16580;BME280;8402;51.466;6.806;2023-03-26T05:54:56;100068.41;;;9.61;97.23
16580;BME280;8402;51.466;6.806;2023-03-26T05:57:28;100068.25;;;9.57;97.55
16580;BME280;8402;51.466;6.806;2023-03-26T06:00:01;100070.97;;;9.57;97.39
16580;BME280;8402;51.466;6.806;2023-03-26T06:02:32;100064.44;;;9.58;97.49
16580;BME280;8402;51.466;6.806;2023-03-26T06:05:02;100060.59;;;9.59;97.66
16580;BME280;8402;51.466;6.806;2023-03-26T06:07:33;100054.53;;;9.62;97.67
16580;BME280;8402;51.466;6.806;2023-03-26T06:10:04;100047.53;;;9.61;98.16
16580;BME280;8402;51.466;6.806;2023-03-26T06:12:35;100044.34;;;9.59;97.92
16580;BME280;8402;51.466;6.806;2023-03-26T06:15:10;100041.19;;;9.57;97.94
16580;BME280;8402;51.466;6.806;2023-03-26T06:17:40;100042.75;;;9.58;98.34
16580;BME280;8402;51.466;6.806;2023-03-26T06:20:13;100037.97;;;9.55;98.33
16580;BME280;8402;51.466;6.806;2023-03-26T06:22:43;100045.66;;;9.53;98.73
16580;BME280;8402;51.466;6.806;2023-03-26T06:25:13;100040.22;;;9.53;98.94
16580;BME280;8402;51.466;6.806;2023-03-26T06:27:44;100037.97;;;9.55;98.75
16580;BME280;8402;51.466;6.806;2023-03-26T06:30:17;100043.06;;;9.57;98.75
16580;BME280;8402;51.466;6.806;2023-03-26T06:32:47;100044.34;;;9.59;98.73
16580;BME280;8402;51.466;6.806;2023-03-26T06:35:17;100037.34;;;9.58;98.88
16580;BME280;8402;51.466;6.806;2023-03-26T06:37:47;100035.09;;;9.60;98.91
16580;BME280;8402;51.466;6.806;2023-03-26T06:40:17;100033.53;;;9.59;99.04
16580;BME280;8402;51.466;6.806;2023-03-26T06:42:47;100036.22;;;9.59;99.05
16580;BME280;8402;51.466;6.806;2023-03-26T06:45:39;100029.69;;;9.60;99.16
16580;BME280;8402;51.466;6.806;2023-03-26T06:48:08;100028.09;;;9.59;99.50
16580;BME280;8402;51.466;6.806;2023-03-26T06:50:38;100027.31;;;9.59;99.71
16580;BME280;8402;51.466;6.806;2023-03-26T06:53:09;100016.59;;;9.62;99.76
16580;BME280;8402;51.466;6.806;2023-03-26T06:55:39;100021.38;;;9.65;99.71
16580;BME280;8402;51.466;6.806;2023-03-26T06:58:10;100021.38;;;9.65;99.87
16580;BME280;8402;51.466;6.806;2023-03-26T07:00:43;100012.78;;;9.63;99.84
16580;BME280;8402;51.466;6.806;2023-03-26T07:03:13;100011.97;;;9.63;100.00
16580;BME280;8402;51.466;6.806;2023-03-26T07:05:43;100012.31;;;9.61;100.00
16580;BME280;8402;51.466;6.806;2023-03-26T07:08:13;100005.13;;;9.65;100.00
16580;BME280;8402;51.466;6.806;2023-03-26T07:10:44;99997.47;;;9.68;100.00
16580;BME280;8402;51.466;6.806;2023-03-26T07:13:13;99993.97;;;9.67;100.00
16580;BME280;8402;51.466;6.806;2023-03-26T07:15:47;99990.47;;;9.67;100.00
16580;BME280;8402;51.466;6.806;2023-03-26T07:18:16;99990.47;;;9.67;100.00
16580;BME280;8402;51.466;6.806;2023-03-26T07:20:50;99980.56;;;9.71;100.00
16580;BME280;8402;51.466;6.806;2023-03-26T07:23:21;99981.34;;;9.71;100.00
16580;BME280;8402;51.466;6.806;2023-03-26T07:25:51;99978.34;;;9.73;100.00
16580;BME280;8402;51.466;6.806;2023-03-26T07:28:26;99980.56;;;9.71;100.00
16580;BME280;8402;51.466;6.806;2023-03-26T07:31:20;99974.22;;;9.67;100.00
16580;BME280;8402;51.466;6.806;2023-03-26T07:33:58;99970.06;;;9.69;100.00
16580;BME280;8402;51.466;6.806;2023-03-26T07:36:33;99958.88;;;9.71;100.00
16580;BME280;8402;51.466;6.806;2023-03-26T07:39:13;99967.34;;;9.69;100.00
16580;BME280;8402;51.466;6.806;2023-03-26T07:41:49;99962.09;;;9.73;100.00
16580;BME280;8402;51.466;6.806;2023-03-26T07:44:41;99958.88;;;9.71;100.00
16580;BME280;8402;51.466;6.806;2023-03-26T07:47:22;99955.53;;;9.74;100.00
16580;BME280;8402;51.466;6.806;2023-03-26T07:49:56;99954.22;;;9.80;100.00
16580;BME280;8402;51.466;6.806;2023-03-26T07:52:27;99950.06;;;9.82;100.00
16580;BME280;8402;51.466;6.806;2023-03-26T07:54:57;99952.44;;;9.84;100.00
16580;BME280;8402;51.466;6.806;2023-03-26T07:57:37;99940.03;;;9.83;100.00
16580;BME280;8402;51.466;6.806;2023-03-26T08:00:17;99942.41;;;9.84;100.00
16580;BME280;8402;51.466;6.806;2023-03-26T08:03:10;99937.31;;;9.83;100.00
16580;BME280;8402;51.466;6.806;2023-03-26T08:05:47;99941.28;;;9.85;100.00
16580;BME280;8402;51.466;6.806;2023-03-26T08:08:25;99930.13;;;9.87;100.00
16580;BME280;8402;51.466;6.806;2023-03-26T08:11:09;99936.78;;;9.89;100.00
16580;BME280;8402;51.466;6.806;2023-03-26T08:14:00;99934.22;;;9.93;100.00
16580;BME280;8402;51.466;6.806;2023-03-26T08:16:36;99937.84;;;9.97;100.00
16580;BME280;8402;51.466;6.806;2023-03-26T08:19:19;99942.16;;;9.98;100.00
16580;BME280;8402;51.466;6.806;2023-03-26T08:21:59;99935.16;;;9.97;100.00
16580;BME280;8402;51.466;6.806;2023-03-26T08:24:35;99938.31;;;9.99;100.00
16580;BME280;8402;51.466;6.806;2023-03-26T08:27:14;99940.84;;;10.04;100.00
16580;BME280;8402;51.466;6.806;2023-03-26T08:29:51;99936.34;;;10.08;100.00
16580;BME280;8402;51.466;6.806;2023-03-26T08:32:24;99936.63;;;10.15;100.00
16580;BME280;8402;51.466;6.806;2023-03-26T08:35:00;99932.13;;;10.19;100.00
16580;BME280;8402;51.466;6.806;2023-03-26T08:37:31;99936.41;;;10.20;100.00
16580;BME280;8402;51.466;6.806;2023-03-26T08:40:01;99938.50;;;10.24;100.00
16580;BME280;8402;51.466;6.806;2023-03-26T08:42:50;99931.94;;;10.25;100.00
16580;BME280;8402;51.466;6.806;2023-03-26T08:48:59;99938.75;;;10.31;100.00
16580;BME280;8402;51.466;6.806;2023-03-26T08:51:55;99930.44;;;10.36;100.00
16580;BME280;8402;51.466;6.806;2023-03-26T09:03:57;99925.28;;;10.43;100.00
16580;BME280;8402;51.466;6.806;2023-03-26T09:10:07;99931.59;;;10.47;100.00
16580;BME280;8402;51.466;6.806;2023-03-26T09:13:08;99924.84;;;10.53;100.00
16580;BME280;8402;51.466;6.806;2023-03-26T09:16:13;99927.38;;;10.58;100.00
16580;BME280;8402;51.466;6.806;2023-03-26T09:22:27;99920.47;;;10.61;100.00
16580;BME280;8402;51.466;6.806;2023-03-26T09:25:25;99921.72;;;10.63;100.00
16580;BME280;8402;51.466;6.806;2023-03-26T09:28:32;99917.41;;;10.62;100.00
16580;BME280;8402;51.466;6.806;2023-03-26T09:31:19;99916.75;;;10.65;100.00
16580;BME280;8402;51.466;6.806;2023-03-26T09:34:02;99913.56;;;10.63;100.00
16580;BME280;8402;51.466;6.806;2023-03-26T09:37:04;99918.09;;;10.59;100.00
16580;BME280;8402;51.466;6.806;2023-03-26T09:39:49;99914.25;;;10.60;100.00
16580;BME280;8402;51.466;6.806;2023-03-26T09:42:34;99917.63;;;10.57;100.00
16580;BME280;8402;51.466;6.806;2023-03-26T09:45:25;99911.75;;;10.55;100.00
16580;BME280;8402;51.466;6.806;2023-03-26T09:48:30;99912.41;;;10.52;100.00
16580;BME280;8402;51.466;6.806;2023-03-26T09:54:18;99907.00;;;10.52;100.00
16580;BME280;8402;51.466;6.806;2023-03-26T09:56:57;99902.47;;;10.56;100.00
16580;BME280;8402;51.466;6.806;2023-03-26T09:59:58;99904.72;;;10.54;100.00
16580;BME280;8402;51.466;6.806;2023-03-26T10:02:42;99902.94;;;10.58;100.00
16580;BME280;8402;51.466;6.806;2023-03-26T10:05:37;99900.00;;;10.63;100.00
16580;BME280;8402;51.466;6.806;2023-03-26T10:08:25;99902.06;;;10.66;100.00
16580;BME280;8402;51.466;6.806;2023-03-26T10:11:06;99907.34;;;10.63;100.00
16580;BME280;8402;51.466;6.806;2023-03-26T10:13:52;99902.47;;;10.56;100.00
16580;BME280;8402;51.466;6.806;2023-03-26T10:16:32;99910.59;;;10.44;100.00
16580;BME280;8402;51.466;6.806;2023-03-26T10:19:16;99902.66;;;10.39;100.00
16580;BME280;8402;51.466;6.806;2023-03-26T10:21:55;99895.75;;;10.41;100.00
16580;BME280;8402;51.466;6.806;2023-03-26T10:24:41;99903.44;;;10.39;100.00
16580;BME280;8402;51.466;6.806;2023-03-26T10:27:32;99897.22;;;10.39;100.00
16580;BME280;8402;51.466;6.806;2023-03-26T10:30:47;99897.34;;;10.42;100.00
16580;BME280;8402;51.466;6.806;2023-03-26T10:33:30;99904.47;;;10.47;100.00
16580;BME280;8402;51.466;6.806;2023-03-26T10:36:26;99894.56;;;10.51;100.00
16580;BME280;8402;51.466;6.806;2023-03-26T10:42:22;99902.75;;;10.42;99.84
16580;BME280;8402;51.466;6.806;2023-03-26T10:45:21;99901.19;;;10.41;100.00
16580;BME280;8402;51.466;6.806;2023-03-26T10:48:19;99904.03;;;10.45;100.00
16580;BME280;8402;51.466;6.806;2023-03-26T10:51:05;99899.72;;;10.44;100.00
16580;BME280;8402;51.466;6.806;2023-03-26T10:53:46;99885.03;;;10.45;100.00
16580;BME280;8402;51.466;6.806;2023-03-26T10:56:24;99896.53;;;10.42;99.94
16580;BME280;8402;51.466;6.806;2023-03-26T10:58:55;99903.56;;;10.43;100.00
16580;BME280;8402;51.466;6.806;2023-03-26T11:01:34;99901.31;;;10.45;100.00
16580;BME280;8402;51.466;6.806;2023-03-26T11:04:17;99901.75;;;10.47;99.93
16580;BME280;8402;51.466;6.806;2023-03-26T11:07:00;99903.34;;;10.48;99.64
16580;BME280;8402;51.466;6.806;2023-03-26T11:09:39;99901.31;;;10.45;99.37
16580;BME280;8402;51.466;6.806;2023-03-26T11:12:19;99902.75;;;10.42;98.84
16580;BME280;8402;51.466;6.806;2023-03-26T11:15:02;99901.31;;;10.45;99.14
16580;BME280;8402;51.466;6.806;2023-03-26T11:17:42;99894.75;;;10.46;98.93
16580;BME280;8402;51.466;6.806;2023-03-26T11:20:18;99888.34;;;10.51;98.68
16580;BME280;8402;51.466;6.806;2023-03-26T11:23:08;99900.63;;;10.48;98.67
16580;BME280;8402;51.466;6.806;2023-03-26T11:25:53;99900.63;;;10.48;98.05
16580;BME280;8402;51.466;6.806;2023-03-26T11:28:53;99897.66;;;10.41;97.93
16580;BME280;8402;51.466;6.806;2023-03-26T11:31:53;99892.84;;;10.46;98.69
16580;BME280;8402;51.466;6.806;2023-03-26T11:34:29;99892.16;;;10.50;98.77
16580;BME280;8402;51.466;6.806;2023-03-26T11:37:01;99894.56;;;10.51;98.44
16580;BME280;8402;51.466;6.806;2023-03-26T11:39:42;99886.19;;;10.56;98.74
16580;BME280;8402;51.466;6.806;2023-03-26T11:42:15;99890.28;;;10.62;98.73
16580;BME280;8402;51.466;6.806;2023-03-26T11:44:50;99892.13;;;10.70;99.12
16580;BME280;8402;51.466;6.806;2023-03-26T11:47:25;99883.66;;;10.72;98.42
16580;BME280;8402;51.466;6.806;2023-03-26T11:49:59;99891.75;;;10.60;97.05
16580;BME280;8402;51.466;6.806;2023-03-26T11:52:30;99887.00;;;10.57;97.84
16580;BME280;8402;51.466;6.806;2023-03-26T11:55:03;99879.44;;;10.62;98.06
16580;BME280;8402;51.466;6.806;2023-03-26T11:57:35;99889.63;;;10.65;97.70
16580;BME280;8402;51.466;6.806;2023-03-26T12:00:10;99884.47;;;10.72;98.49
16580;BME280;8402;51.466;6.806;2023-03-26T12:02:45;99881.28;;;10.83;98.64
16580;BME280;8402;51.466;6.806;2023-03-26T12:05:18;99885.03;;;10.90;98.39
16580;BME280;8402;51.466;6.806;2023-03-26T12:07:55;99885.19;;;10.94;97.99
16580;BME280;8402;51.466;6.806;2023-03-26T12:10:35;99885.28;;;10.97;97.78
16580;BME280;8402;51.466;6.806;2023-03-26T12:13:24;99883.00;;;10.99;97.10
16580;BME280;8402;51.466;6.806;2023-03-26T12:16:03;99894.25;;;11.10;97.53
16580;BME280;8402;51.466;6.806;2023-03-26T12:18:33;99875.47;;;11.17;97.86
16580;BME280;8402;51.466;6.806;2023-03-26T12:21:06;99885.19;;;11.18;97.28
16580;BME280;8402;51.466;6.806;2023-03-26T12:23:49;99875.25;;;11.22;97.47
16580;BME280;8402;51.466;6.806;2023-03-26T12:26:34;99883.94;;;11.28;97.30
16580;BME280;8402;51.466;6.806;2023-03-26T12:29:08;99879.66;;;11.39;98.17
16580;BME280;8402;51.466;6.806;2023-03-26T12:31:48;99875.25;;;11.47;97.44
16580;BME280;8402;51.466;6.806;2023-03-26T12:34:20;99877.94;;;11.59;98.26
16580;BME280;8402;51.466;6.806;2023-03-26T12:36:52;99872.63;;;11.63;96.94
16580;BME280;8402;51.466;6.806;2023-03-26T12:39:32;99875.91;;;11.68;95.55
16580;BME280;8402;51.466;6.806;2023-03-26T12:42:28;99868.19;;;11.70;95.96
16580;BME280;8402;51.466;6.806;2023-03-26T12:45:19;99863.13;;;11.81;96.55
16580;BME280;8402;51.466;6.806;2023-03-26T12:47:51;99866.38;;;11.87;96.20
16580;BME280;8402;51.466;6.806;2023-03-26T12:50:38;99861.16;;;11.94;96.22
16580;BME280;8402;51.466;6.806;2023-03-26T12:53:27;99867.28;;;11.91;94.96
16580;BME280;8402;51.466;6.806;2023-03-26T12:56:00;99867.28;;;11.91;95.31
16580;BME280;8402;51.466;6.806;2023-03-26T12:59:00;99869.97;;;11.78;94.02
16580;BME280;8402;51.466;6.806;2023-03-26T13:01:46;99870.69;;;11.75;93.79
16580;BME280;8402;51.466;6.806;2023-03-26T13:04:39;99870.59;;;11.72;92.80
16580;BME280;8402;51.466;6.806;2023-03-26T13:07:41;99878.38;;;11.73;94.61
16580;BME280;8402;51.466;6.806;2023-03-26T13:10:41;99869.75;;;11.71;93.18
16580;BME280;8402;51.466;6.806;2023-03-26T13:13:32;99865.25;;;11.88;95.22
16580;BME280;8402;51.466;6.806;2023-03-26T13:16:14;99864.31;;;11.96;93.65
16580;BME280;8402;51.466;6.806;2023-03-26T13:18:53;99862.03;;;11.98;93.38
16580;BME280;8402;51.466;6.806;2023-03-26T13:21:31;99865.81;;;11.93;92.76
16580;BME280;8402;51.466;6.806;2023-03-26T13:24:08;99871.13;;;11.90;92.56
16580;BME280;8402;51.466;6.806;2023-03-26T13:26:52;99877.94;;;11.83;93.07
16580;BME280;8402;51.466;6.806;2023-03-26T13:29:33;99877.03;;;11.79;92.97
16580;BME280;8402;51.466;6.806;2023-03-26T13:32:14;99880.19;;;11.69;92.72
16580;BME280;8402;51.466;6.806;2023-03-26T13:35:00;99884.28;;;11.63;93.30
16580;BME280;8402;51.466;6.806;2023-03-26T13:37:38;99886.31;;;11.54;93.81
16580;BME280;8402;51.466;6.806;2023-03-26T13:40:22;99884.66;;;11.37;93.49
16580;BME280;8402;51.466;6.806;2023-03-26T13:43:08;99886.78;;;11.44;93.87
16580;BME280;8402;51.466;6.806;2023-03-26T13:45:53;99889.25;;;11.49;94.51
16580;BME280;8402;51.466;6.806;2023-03-26T13:48:28;99883.16;;;11.52;94.42
16580;BME280;8402;51.466;6.806;2023-03-26T13:51:03;99882.47;;;11.55;94.44
16580;BME280;8402;51.466;6.806;2023-03-26T13:53:40;99881.81;;;11.58;94.69
16580;BME280;8402;51.466;6.806;2023-03-26T13:56:14;99888.13;;;11.62;94.51
16580;BME280;8402;51.466;6.806;2023-03-26T13:58:49;99891.41;;;11.68;94.38
16580;BME280;8402;51.466;6.806;2023-03-26T14:01:26;99888.13;;;11.62;93.18
16580;BME280;8402;51.466;6.806;2023-03-26T14:04:06;99899.91;;;11.66;93.59
16580;BME280;8402;51.466;6.806;2023-03-26T14:06:46;99899.22;;;11.69;94.27
16580;BME280;8402;51.466;6.806;2023-03-26T14:09:28;99892.31;;;11.72;94.61
16580;BME280;8402;51.466;6.806;2023-03-26T14:12:20;99892.91;;;11.65;94.10
16580;BME280;8402;51.466;6.806;2023-03-26T14:14:59;99905.56;;;11.61;93.84
16580;BME280;8402;51.466;6.806;2023-03-26T14:17:36;99903.75;;;11.41;92.90
16580;BME280;8402;51.466;6.806;2023-03-26T14:20:30;99907.28;;;11.29;93.71
16580;BME280;8402;51.466;6.806;2023-03-26T14:23:15;99902.06;;;11.36;94.40
16580;BME280;8402;51.466;6.806;2023-03-26T14:26:05;99908.31;;;11.37;93.88